Terminal Aerodrome Forecast
Issued by NWS

Home | Current Version | Previous Version | Text Only | Print | Product List | Glossary Off
Versions: 1 2 3 4 5 6 7 8 9 10 11 12 13 14 15 16 17 18 19 20

000
FTUS41 KCLE 271100
TAFFDY
TAF
KFDY 271137Z 2712/2812 20010KT P6SM OVC040
     FM271300 19010KT P6SM VCSH SCT030 OVC040
      TEMPO 2713/2716 5SM -SHRA BR BKN030 OVC040
     FM271600 22010G20KT P6SM OVC025
     FM272100 23010KT 5SM -RA BR OVC010
     FM280500 30010KT P6SM SCT015 OVC025=

USA.gov is the U.S. government's official web portal to all federal, state and local government web resources and services.